Time;durP1;ratioP1;P1;durP2;ratioP2;P2;SDS_P1;SDS_P2;PMS_P1;PMS_P2;Temp;Humidity;BMP_temperature;BMP_pressure;BME280_temperature;BME280_humidity;BME280_pressure;Samples;Min_cycle;Max_cycle;Signal;HPM_P1;HPM_P2
2021/03/15 00:00:53;;;;;;;30.05;20.62;;;;;;;6.84;78.18;95875.38;1743987;82;21254;-77
2021/03/15 00:03:23;;;;;;;31.12;21.37;;;;;;;6.95;78.20;95872.33;1776158;81;21297;-77
2021/03/15 00:05:54;;;;;;;30.37;20.52;;;;;;;7.02;78.25;95873.46;1743507;82;21725;-79
2021/03/15 00:08:22;;;;;;;30.00;21.93;;;;;;;6.99;77.93;95868.50;1744202;82;21128;-78
2021/03/15 00:10:52;;;;;;;29.25;20.72;;;;;;;7.00;78.15;95864.44;1744335;82;21750;-77
2021/03/15 00:13:20;;;;;;;28.15;17.67;;;;;;;7.05;78.07;95858.80;1776510;81;21170;-80
2021/03/15 00:15:50;;;;;;;26.85;20.57;;;;;;;7.02;78.65;95861.67;1777795;81;21123;-77
2021/03/15 00:18:19;;;;;;;29.05;20.68;;;;;;;7.03;78.43;95852.85;1747384;81;21556;-78
2021/03/15 00:20:49;;;;;;;28.95;20.77;;;;;;;7.05;78.29;95850.94;1747813;81;21613;-78
2021/03/15 00:23:17;;;;;;;27.90;19.80;;;;;;;7.05;78.29;95850.94;1759827;81;21104;-78
2021/03/15 00:25:44;;;;;;;27.70;20.08;;;;;;;7.08;78.27;95844.13;1730563;81;21580;-77
2021/03/15 00:28:14;;;;;;;24.63;16.97;;;;;;;7.10;78.22;95840.88;1751385;81;21285;-78
2021/03/15 00:30:42;;;;;;;25.52;18.70;;;;;;;7.01;78.72;95832.50;1761236;81;21581;-77
2021/03/15 00:33:11;;;;;;;26.85;17.80;;;;;;;6.98;78.47;95830.98;1747579;82;21131;-77
2021/03/15 00:35:39;;;;;;;26.10;20.20;;;;;;;7.05;79.34;95830.47;1737289;82;21159;-77
2021/03/15 00:38:07;;;;;;;23.05;17.20;;;;;;;7.01;78.85;95825.95;1732806;82;21254;-79
2021/03/15 00:40:35;;;;;;;26.85;18.40;;;;;;;6.93;78.71;95829.25;1747642;81;21134;-79
2021/03/15 00:43:04;;;;;;;31.00;19.73;;;;;;;6.87;78.77;95838.45;1747611;82;21281;-78
2021/03/15 00:45:33;;;;;;;22.85;18.75;;;;;;;6.95;79.18;95821.25;1747615;82;21173;-78
2021/03/15 00:48:01;;;;;;;26.30;18.42;;;;;;;6.95;79.18;95821.25;1755835;81;21148;-78
2021/03/15 00:50:40;;;;;;;28.23;19.30;;;;;;;7.10;78.89;95830.39;1748907;81;21265;-78
2021/03/15 00:53:07;;;;;;;27.50;19.67;;;;;;;7.24;79.51;95829.20;1748026;81;21312;-80
2021/03/15 00:55:35;;;;;;;26.77;19.40;;;;;;;7.37;78.95;95830.30;1757754;81;21151;-80
2021/03/15 00:58:04;;;;;;;28.23;18.85;;;;;;;7.47;78.90;95830.30;1747779;82;21127;-78
2021/03/15 01:00:37;;;;;;;25.10;18.40;;;;;;;7.56;79.06;95828.17;1747780;81;21246;-78
2021/03/15 01:03:08;;;;;;;27.02;18.50;;;;;;;7.60;78.71;95825.64;1747989;82;21151;-78
2021/03/15 01:05:44;;;;;;;24.12;17.75;;;;;;;7.70;78.93;95811.71;1758778;81;21301;-76
2021/03/15 01:08:30;;;;;;;26.75;18.73;;;;;;;7.77;78.69;95818.88;1805748;78;25346;-78
2021/03/15 01:10:59;;;;;;;26.68;17.95;;;;;;;7.83;78.57;95812.75;1814486;78;21487;-80
2021/03/15 01:13:27;;;;;;;22.65;18.07;;;;;;;7.88;78.55;95815.31;1804220;79;21150;-78
2021/03/15 01:15:56;;;;;;;27.73;18.67;;;;;;;7.93;78.29;95814.89;1828110;78;21257;-79
2021/03/15 01:18:25;;;;;;;23.38;17.73;;;;;;;8.03;78.52;95813.57;1830822;78;21278;-77
2021/03/15 01:20:53;;;;;;;22.52;17.98;;;;;;;8.08;78.15;95808.72;1819175;78;21275;-79
2021/03/15 01:23:21;;;;;;;27.95;18.45;;;;;;;8.12;78.02;95805.67;1820557;78;21105;-78
2021/03/15 01:25:49;;;;;;;25.85;19.37;;;;;;;8.11;77.71;95800.58;1810021;78;21231;-78
2021/03/15 01:28:19;;;;;;;26.50;17.45;;;;;;;8.14;77.76;95799.00;1798720;80;21150;-81
2021/03/15 01:30:48;;;;;;;21.00;17.05;;;;;;;8.16;77.56;95794.91;1829540;78;21127;-79
2021/03/15 01:33:17;;;;;;;21.77;17.12;;;;;;;8.15;77.59;95785.37;1816124;78;21526;-80
2021/03/15 01:35:45;;;;;;;26.50;17.95;;;;;;;8.19;77.49;95779.70;1784797;78;21265;-77
2021/03/15 01:38:13;;;;;;;21.73;17.40;;;;;;;8.12;77.36;95772.05;1749878;81;21116;-79
2021/03/15 01:40:42;;;;;;;23.05;16.73;;;;;;;8.20;77.50;95773.48;1730138;82;21182;-79
2021/03/15 01:43:11;;;;;;;24.10;18.42;;;;;;;8.21;77.12;95778.27;1734407;83;21592;-80
2021/03/15 01:45:39;;;;;;;21.37;16.30;;;;;;;8.21;77.17;95782.20;1730565;83;21149;-79
2021/03/15 01:48:13;;;;;;;25.43;18.98;;;;;;;8.18;76.99;95778.55;1700022;83;21130;-79
2021/03/15 01:50:45;;;;;;;22.22;17.32;;;;;;;8.18;77.12;95777.23;1745034;82;21301;-79
2021/03/15 01:53:15;;;;;;;26.95;18.30;;;;;;;8.23;77.39;95771.06;1753881;82;21130;-78
2021/03/15 01:55:44;;;;;;;24.05;17.82;;;;;;;8.26;77.20;95766.84;1735010;82;21134;-79
2021/03/15 01:58:14;;;;;;;20.72;16.70;;;;;;;8.30;77.50;95768.23;1754914;82;21308;-78
2021/03/15 02:00:44;;;;;;;21.57;17.45;;;;;;;8.30;77.20;95764.30;1754888;82;21343;-79
2021/03/15 02:03:14;;;;;;;25.00;18.48;;;;;;;8.26;77.22;95764.22;1754721;82;21292;-77
2021/03/15 02:05:43;;;;;;;27.07;18.17;;;;;;;8.29;77.42;95765.27;1723780;82;21116;-78
2021/03/15 02:08:12;;;;;;;27.07;19.45;;;;;;;8.32;77.48;95766.27;1702292;84;21298;-78
2021/03/15 02:10:40;;;;;;;24.12;17.67;;;;;;;8.31;77.26;95761.98;1675448;84;21256;-77
2021/03/15 02:13:35;;;;;;;22.40;17.95;;;;;;;8.34;77.22;95760.40;1741517;81;21099;-77
2021/03/15 02:16:46;;;;;;;22.52;18.17;;;;;;;8.35;77.19;95754.19;1677065;82;21237;-78
2021/03/15 02:19:43;;;;;;;26.62;17.82;;;;;;;8.34;77.15;95764.34;1740323;81;21286;-78
2021/03/15 02:22:48;;;;;;;27.40;18.27;;;;;;;8.31;76.96;95764.61;1703185;84;21608;-78
2021/03/15 02:25:45;;;;;;;27.40;19.87;;;;;;;8.35;77.22;95763.87;1733893;82;21142;-78
2021/03/15 02:28:50;;;;;;;23.22;19.25;;;;;;;8.43;77.35;95758.73;1734204;83;21147;-79
2021/03/15 02:32:00;;;;;;;27.27;19.57;;;;;;;8.47;77.33;95756.64;1723052;83;21551;-79
2021/03/15 02:35:12;;;;;;;28.60;19.10;;;;;;;8.48;76.88;95751.77;1749554;80;21305;-77
2021/03/15 02:37:46;;;;;;;26.25;18.25;;;;;;;8.40;76.95;95755.88;1757761;81;21112;-80
2021/03/15 02:40:19;;;;;;;22.80;17.48;;;;;;;8.41;76.96;95756.23;1770230;81;22230;-78
2021/03/15 02:42:52;;;;;;;23.98;17.52;;;;;;;8.42;77.01;95754.45;1745195;81;21111;-78
2021/03/15 02:45:20;;;;;;;23.70;17.73;;;;;;;8.40;77.24;95746.69;1741636;81;21116;-78
2021/03/15 02:47:50;;;;;;;22.20;17.30;;;;;;;8.43;76.70;95752.98;1738883;82;21297;-78
2021/03/15 02:50:19;;;;;;;23.50;18.75;;;;;;;8.43;76.73;95752.98;1703397;83;21180;-79
2021/03/15 02:52:51;;;;;;;24.90;18.87;;;;;;;8.39;76.65;95753.41;1750353;81;21266;-78
2021/03/15 02:55:24;;;;;;;26.77;19.42;;;;;;;8.33;76.51;95747.42;1753299;81;21251;-78
2021/03/15 02:57:54;;;;;;;23.75;19.05;;;;;;;8.27;76.52;95751.45;1769360;80;21107;-77
2021/03/15 03:00:25;;;;;;;30.57;21.12;;;;;;;8.20;76.39;95749.86;1770584;80;21295;-78
2021/03/15 03:02:54;;;;;;;28.17;21.12;;;;;;;8.12;76.38;95747.94;1768225;81;21227;-77
2021/03/15 03:05:24;;;;;;;26.57;20.80;;;;;;;8.03;76.36;95744.84;1768853;81;21529;-79
2021/03/15 03:07:57;;;;;;;29.70;21.80;;;;;;;7.94;76.41;95743.06;1761869;81;21293;-78
2021/03/15 03:10:26;;;;;;;29.67;22.75;;;;;;;7.89;76.78;95753.16;1739997;82;21146;-78
2021/03/15 03:12:57;;;;;;;31.97;23.98;;;;;;;7.81;76.64;95749.44;1740379;81;21706;-78
2021/03/15 03:15:29;;;;;;;35.75;26.68;;;;;;;7.74;76.49;95748.34;1771092;80;21270;-77
2021/03/15 03:18:02;;;;;;;38.67;28.30;;;;;;;7.63;76.80;95741.92;1769353;80;21695;-78
2021/03/15 03:20:31;;;;;;;35.63;27.95;;;;;;;7.63;76.80;95741.92;1769327;81;21149;-78
2021/03/15 03:23:03;;;;;;;37.23;25.17;;;;;;;7.57;76.87;95744.61;1743237;81;21591;-78
2021/03/15 03:25:32;;;;;;;38.30;25.32;;;;;;;7.50;76.72;95743.52;1733855;83;21353;-77
2021/03/15 03:28:02;;;;;;;31.40;23.47;;;;;;;7.45;76.85;95739.99;1738406;81;21282;-78
2021/03/15 03:30:39;;;;;;;27.50;22.80;;;;;;;7.42;77.14;95740.25;1686516;83;21138;-77
2021/03/15 03:33:09;;;;;;;30.17;21.25;;;;;;;7.42;77.23;95738.13;1742957;80;21154;-78
2021/03/15 03:35:37;;;;;;;28.02;20.43;;;;;;;7.41;77.67;95725.48;1733393;81;21562;-78
2021/03/15 03:38:05;;;;;;;24.63;19.07;;;;;;;7.48;77.55;95731.02;1770151;81;21139;-78
2021/03/15 03:40:33;;;;;;;24.37;19.32;;;;;;;7.49;77.66;95716.94;1770511;80;21145;-79
2021/03/15 03:43:00;;;;;;;28.02;17.85;;;;;;;7.55;77.59;95729.98;1765969;80;21312;-78
2021/03/15 03:45:28;;;;;;;30.70;21.12;;;;;;;7.61;77.87;95730.23;1755989;81;21119;-79
2021/03/15 03:47:57;;;;;;;24.00;18.02;;;;;;;7.68;77.93;95725.27;1744530;81;21096;-77
2021/03/15 03:50:29;;;;;;;23.92;19.10;;;;;;;7.79;78.13;95713.83;1741917;80;21241;-80
2021/03/15 03:53:05;;;;;;;25.10;18.48;;;;;;;7.79;78.13;95713.83;1740014;81;21258;-78
2021/03/15 03:55:44;;;;;;;22.50;17.23;;;;;;;7.87;77.98;95716.58;1757603;81;21918;-77
2021/03/15 03:58:16;;;;;;;25.60;18.75;;;;;;;7.93;77.90;95719.94;1770664;81;21281;-77
2021/03/15 04:00:46;;;;;;;23.85;17.77;;;;;;;7.95;77.73;95713.23;1750645;80;21555;-79
2021/03/15 04:03:19;;;;;;;23.75;17.55;;;;;;;7.97;77.74;95716.08;1770316;81;21273;-77
2021/03/15 04:05:53;;;;;;;22.77;17.80;;;;;;;8.02;77.74;95710.87;1766696;81;21293;-78
2021/03/15 04:08:29;;;;;;;21.82;16.90;;;;;;;8.05;77.80;95712.73;1733218;82;21583;-76
2021/03/15 04:10:59;;;;;;;29.52;18.48;;;;;;;8.12;77.87;95711.19;1759205;81;21316;-78
2021/03/15 04:13:29;;;;;;;25.68;16.73;;;;;;;8.19;77.77;95710.64;1739360;82;21119;-76
2021/03/15 04:15:59;;;;;;;26.00;18.87;;;;;;;8.21;77.62;95708.70;1740825;81;21171;-77
2021/03/15 04:18:29;;;;;;;20.82;15.88;;;;;;;8.27;77.56;95696.31;1770468;81;21136;-78
2021/03/15 04:20:59;;;;;;;25.32;17.17;;;;;;;8.27;77.56;95696.31;1758328;80;21568;-78
2021/03/15 04:23:35;;;;;;;23.20;17.32;;;;;;;8.37;77.83;95694.48;1751102;81;21277;-77
2021/03/15 04:26:05;;;;;;;24.55;17.65;;;;;;;8.41;77.57;95691.90;1770573;80;21270;-77
2021/03/15 04:28:36;;;;;;;21.12;17.07;;;;;;;8.40;77.33;95692.86;1768919;81;21266;-77
2021/03/15 04:31:08;;;;;;;21.42;16.32;;;;;;;8.33;77.19;95683.91;1767944;80;21143;-79
2021/03/15 04:33:40;;;;;;;21.30;16.07;;;;;;;8.29;77.11;95683.88;1757869;81;21107;-78
2021/03/15 04:36:10;;;;;;;26.30;18.80;;;;;;;8.21;77.28;95685.08;1758429;81;21584;-78
2021/03/15 04:38:39;;;;;;;27.42;18.67;;;;;;;8.10;77.23;95686.06;1744155;81;21521;-77
2021/03/15 04:41:09;;;;;;;23.65;17.05;;;;;;;8.02;77.70;95684.17;1769679;81;21132;-78
2021/03/15 04:43:39;;;;;;;20.95;15.75;;;;;;;7.95;77.68;95682.59;1769910;81;21124;-77
2021/03/15 04:46:09;;;;;;;25.02;16.07;;;;;;;7.92;77.38;95680.23;1769982;81;21151;-77
2021/03/15 04:48:39;;;;;;;22.10;15.63;;;;;;;7.86;77.76;95674.25;1746286;81;21270;-78
2021/03/15 04:51:07;;;;;;;21.97;15.50;;;;;;;7.76;77.90;95660.33;1754282;81;21300;-77
2021/03/15 04:53:39;;;;;;;20.20;15.35;;;;;;;7.84;78.18;95666.19;1675799;84;21596;-76
2021/03/15 04:56:12;;;;;;;19.87;16.35;;;;;;;7.84;78.18;95666.19;1738770;82;21680;-78
2021/03/15 04:58:46;;;;;;;20.15;16.10;;;;;;;7.93;78.02;95674.52;1721515;83;21838;-78
2021/03/15 05:01:17;;;;;;;21.67;15.70;;;;;;;7.93;78.02;95674.52;1770564;81;21302;-77
2021/03/15 05:03:52;;;;;;;20.57;15.45;;;;;;;7.95;77.99;95677.81;1770224;81;21144;-77
2021/03/15 05:06:21;;;;;;;23.25;15.78;;;;;;;7.98;78.28;95678.84;1744238;81;21172;-78
2021/03/15 05:08:53;;;;;;;26.70;17.60;;;;;;;8.00;78.09;95678.23;1752375;80;21691;-78
2021/03/15 05:11:26;;;;;;;22.13;18.42;;;;;;;7.83;77.48;95675.84;1702876;83;21138;-79
2021/03/15 05:13:54;;;;;;;26.85;19.70;;;;;;;7.39;77.51;95659.25;1739167;81;21427;-77
2021/03/15 05:16:23;;;;;;;28.65;21.33;;;;;;;7.39;77.51;95659.25;1742427;81;21621;-78
2021/03/15 05:18:53;;;;;;;29.45;22.82;;;;;;;7.31;78.04;95669.60;1702623;84;21155;-78
2021/03/15 05:21:23;;;;;;;28.23;21.70;;;;;;;7.34;78.54;95676.70;1743619;81;21119;-77
2021/03/15 05:23:55;;;;;;;30.35;22.90;;;;;;;7.27;78.27;95670.86;1750821;81;21289;-77
2021/03/15 05:26:24;;;;;;;30.72;23.35;;;;;;;7.27;78.27;95670.86;1768192;80;21123;-77
2021/03/15 05:28:54;;;;;;;32.48;25.20;;;;;;;7.23;78.53;95667.69;1756946;80;21281;-78
2021/03/15 05:31:22;;;;;;;34.18;26.90;;;;;;;7.26;78.84;95670.52;1766935;81;21126;-78
2021/03/15 05:33:53;;;;;;;31.12;24.55;;;;;;;7.30;78.76;95666.63;1769488;80;21296;-78
2021/03/15 05:36:23;;;;;;;25.02;18.45;;;;;;;7.28;78.79;95665.97;1768435;80;21443;-77
2021/03/15 05:38:51;;;;;;;32.80;21.23;;;;;;;7.18;78.68;95665.48;1731702;83;21111;-78
2021/03/15 05:41:29;;;;;;;33.25;21.05;;;;;;;7.18;78.68;95665.48;1751058;81;21560;-79
2021/03/15 05:44:09;;;;;;;28.87;21.85;;;;;;;7.14;79.18;95659.34;1719572;83;21130;-79
2021/03/15 05:47:22;;;;;;;32.28;23.20;;;;;;;7.15;78.74;95665.74;1767911;80;21286;-78
2021/03/15 05:50:18;;;;;;;32.48;21.55;;;;;;;7.21;79.16;95662.22;1769997;81;21308;-79
2021/03/15 05:53:34;;;;;;;30.82;22.90;;;;;;;7.26;79.32;95652.16;1756714;80;21137;-77
2021/03/15 05:56:22;;;;;;;31.55;22.48;;;;;;;7.26;79.32;95652.16;1762600;81;21203;-77
2021/03/15 05:59:28;;;;;;;29.82;22.95;;;;;;;7.47;79.80;95659.88;1759990;81;21160;-79
2021/03/15 06:02:07;;;;;;;30.68;20.15;;;;;;;7.60;79.51;95662.20;1763715;81;21135;-77
2021/03/15 06:05:14;;;;;;;29.82;20.32;;;;;;;7.73;79.66;95654.89;1746000;81;21615;-77
2021/03/15 06:07:48;;;;;;;25.75;18.00;;;;;;;7.87;79.71;95654.92;1737878;81;21139;-78
2021/03/15 06:10:38;;;;;;;24.43;17.80;;;;;;;7.93;78.89;95654.84;1739141;81;21741;-76
2021/03/15 06:13:13;;;;;;;19.27;14.35;;;;;;;7.88;78.95;95661.83;1748381;81;21110;-78
2021/03/15 06:15:44;;;;;;;23.10;16.87;;;;;;;7.80;78.96;95658.59;1744750;81;21580;-77
2021/03/15 06:18:15;;;;;;;26.40;18.15;;;;;;;7.72;78.93;95663.72;1753105;81;21138;-78
2021/03/15 06:20:46;;;;;;;22.95;16.40;;;;;;;7.73;79.19;95657.51;1746481;81;21615;-78
2021/03/15 06:23:17;;;;;;;23.92;18.05;;;;;;;7.86;79.62;95674.72;1767465;81;21114;-81
2021/03/15 06:25:47;;;;;;;23.12;16.55;;;;;;;7.86;79.62;95674.72;1772944;81;21280;-77
2021/03/15 06:28:17;;;;;;;23.60;15.35;;;;;;;7.82;79.37;95668.94;1772435;81;21153;-77
2021/03/15 06:30:48;;;;;;;27.05;18.92;;;;;;;7.76;79.47;95678.69;1772446;81;21709;-77
2021/03/15 06:33:19;;;;;;;29.82;19.77;;;;;;;7.62;79.04;95673.39;1771919;81;21264;-78
2021/03/15 06:36:00;;;;;;;24.27;16.90;;;;;;;7.58;79.36;95672.84;1771670;81;21583;-78
2021/03/15 06:38:30;;;;;;;24.27;17.10;;;;;;;7.53;78.95;95668.48;1756654;80;21585;-79
2021/03/15 06:41:04;;;;;;;27.15;19.37;;;;;;;7.54;80.09;95666.21;1742428;81;21410;-77
2021/03/15 06:43:32;;;;;;;33.95;22.58;;;;;;;7.49;80.31;95664.50;1767087;81;21130;-77
2021/03/15 06:46:00;;;;;;;33.55;23.52;;;;;;;7.44;80.09;95662.77;1773021;81;21241;-80
2021/03/15 06:48:29;;;;;;;34.88;24.12;;;;;;;7.57;80.78;95659.39;1772551;81;21127;-77
2021/03/15 06:50:57;;;;;;;37.60;25.88;;;;;;;7.64;80.27;95662.28;1772393;81;21146;-77
2021/03/15 06:53:37;;;;;;;38.95;24.45;;;;;;;7.68;80.44;95663.64;1770923;81;21173;-78
2021/03/15 06:56:17;;;;;;;34.48;24.43;;;;;;;7.75;80.36;95662.60;1771274;81;21545;-81
2021/03/15 06:58:53;;;;;;;33.33;24.07;;;;;;;7.84;80.28;95656.52;1772491;81;21106;-78
2021/03/15 07:01:28;;;;;;;34.78;23.98;;;;;;;7.91;80.19;95648.41;1772779;81;21131;-79
2021/03/15 07:04:08;;;;;;;34.40;24.50;;;;;;;7.91;80.16;95655.47;1744999;81;21091;-78
2021/03/15 07:06:41;;;;;;;37.45;24.63;;;;;;;8.04;80.35;95649.41;1772154;81;21174;-79
2021/03/15 07:09:15;;;;;;;34.73;23.30;;;;;;;8.16;80.28;95647.92;1781646;79;21147;-77
2021/03/15 07:11:44;;;;;;;37.70;23.47;;;;;;;8.29;80.52;95645.81;1791258;80;21167;-77
2021/03/15 07:14:25;;;;;;;36.53;25.08;;;;;;;8.46;80.23;95649.95;1791649;80;21104;-78
2021/03/15 07:17:00;;;;;;;29.55;21.60;;;;;;;8.59;80.12;95638.16;1792284;80;21131;-78
2021/03/15 07:19:28;;;;;;;35.25;22.32;;;;;;;8.71;79.52;95636.66;1783675;80;21127;-77
2021/03/15 07:21:56;;;;;;;31.12;21.68;;;;;;;8.79;79.46;95639.36;1784349;80;21144;-76
2021/03/15 07:24:31;;;;;;;25.92;16.48;;;;;;;8.90;79.25;95637.00;1780321;80;21468;-77
2021/03/15 07:26:59;;;;;;;26.15;17.52;;;;;;;8.80;77.99;95633.61;1760834;81;21378;-77
2021/03/15 07:29:29;;;;;;;22.65;17.82;;;;;;;8.61;77.02;95631.44;1787851;80;21152;-79
2021/03/15 07:31:58;;;;;;;20.57;16.25;;;;;;;8.51;78.26;95635.45;1788823;80;21176;-80
2021/03/15 07:34:26;;;;;;;20.82;16.50;;;;;;;8.38;77.63;95636.22;1763255;80;21193;-79
2021/03/15 07:37:00;;;;;;;21.25;14.83;;;;;;;8.27;77.94;95642.00;1792624;80;21151;-80
2021/03/15 07:39:31;;;;;;;15.85;12.80;;;;;;;8.17;77.82;95641.70;1787345;80;22052;-79
2021/03/15 07:42:01;;;;;;;17.92;13.32;;;;;;;7.85;79.02;95624.53;1784522;80;21100;-79
2021/03/15 07:44:35;;;;;;;14.00;11.05;;;;;;;7.85;79.02;95624.53;1792761;80;21108;-79
2021/03/15 07:47:07;;;;;;;16.93;13.10;;;;;;;7.81;79.40;95634.02;1780739;80;21139;-77
2021/03/15 07:49:42;;;;;;;13.98;11.48;;;;;;;7.76;78.92;95636.22;1771367;80;21140;-76
2021/03/15 07:52:12;;;;;;;15.78;11.53;;;;;;;7.76;79.36;95632.78;1788141;80;21123;-79
2021/03/15 07:54:43;;;;;;;16.45;12.70;;;;;;;7.75;79.16;95635.88;1781758;80;21154;-79
2021/03/15 07:57:24;;;;;;;12.55;7.95;;;;;;;7.60;79.10;95628.96;1784598;80;21148;-79
2021/03/15 07:59:55;;;;;;;14.10;11.03;;;;;;;7.44;79.83;95633.46;1777002;80;21469;-77
2021/03/15 08:02:28;;;;;;;14.73;11.75;;;;;;;7.44;79.83;95633.46;1783636;80;21115;-78
2021/03/15 08:04:59;;;;;;;14.18;11.40;;;;;;;7.37;79.74;95633.68;1790358;80;21164;-78
2021/03/15 08:07:29;;;;;;;12.70;10.10;;;;;;;7.41;79.52;95627.67;1759362;81;21218;-78
2021/03/15 08:10:00;;;;;;;14.45;11.45;;;;;;;7.49;79.47;95629.11;1760484;80;21167;-76
2021/03/15 08:12:37;;;;;;;12.93;11.08;;;;;;;7.51;79.48;95621.94;1790862;80;21179;-76
2021/03/15 08:15:12;;;;;;;9.58;6.80;;;;;;;7.64;79.80;95622.45;1648116;86;22300;-78
2021/03/15 08:17:46;;;;;;;14.38;11.08;;;;;;;7.71;79.80;95625.81;1641256;86;21293;-79
2021/03/15 08:20:17;;;;;;;14.25;11.08;;;;;;;7.60;79.41;95622.88;1666486;86;21193;-80
2021/03/15 08:22:54;;;;;;;14.07;11.65;;;;;;;7.67;79.57;95627.89;1675124;86;21218;-78
2021/03/15 08:25:23;;;;;;;15.38;12.30;;;;;;;7.71;79.45;95624.03;1647680;86;21174;-77
2021/03/15 08:28:00;;;;;;;17.73;11.65;;;;;;;7.77;79.39;95624.77;1676419;86;21209;-79
2021/03/15 08:30:32;;;;;;;9.05;6.62;;;;;;;7.84;79.03;95624.22;1676623;86;21181;-78
2021/03/15 08:33:01;;;;;;;14.20;11.45;;;;;;;7.91;79.97;95623.98;1717517;79;21207;-79
2021/03/15 08:35:30;;;;;;;13.28;10.40;;;;;;;7.79;79.20;95620.21;1786169;80;21313;-78
2021/03/15 08:38:03;;;;;;;9.58;6.87;;;;;;;7.75;79.52;95611.45;1764465;80;21655;-76
2021/03/15 08:40:47;;;;;;;13.53;11.95;;;;;;;7.86;80.01;95620.94;1759778;81;21705;-82
2021/03/15 08:43:26;;;;;;;14.68;12.58;;;;;;;7.82;79.10;95611.22;1762601;81;21173;-80
2021/03/15 08:46:10;;;;;;;16.57;11.78;;;;;;;7.84;79.06;95616.34;1763018;81;21295;-82
2021/03/15 08:48:51;;;;;;;17.90;12.53;;;;;;;7.87;78.87;95612.11;1763025;81;21279;-81
2021/03/15 08:51:39;;;;;;;15.90;12.20;;;;;;;7.89;78.92;95612.80;1765107;80;21164;-80
2021/03/15 08:54:09;;;;;;;12.00;7.42;;;;;;;7.93;78.80;95606.31;1762276;81;21252;-81
2021/03/15 08:56:45;;;;;;;10.38;7.90;;;;;;;7.95;78.77;95611.75;1777040;80;21136;-79
2021/03/15 08:59:14;;;;;;;12.18;9.28;;;;;;;7.80;78.69;95610.06;1794388;80;21235;-80
2021/03/15 09:01:53;;;;;;;11.20;8.75;;;;;;;7.71;78.54;95608.76;1793911;80;21101;-79
2021/03/15 09:04:42;;;;;;;11.60;9.08;;;;;;;7.70;78.72;95611.06;1793689;80;21143;-82
2021/03/15 09:07:34;;;;;;;13.35;8.93;;;;;;;7.71;78.95;95603.52;1793890;80;21139;-82
2021/03/15 09:10:30;;;;;;;14.03;10.35;;;;;;;7.70;78.89;95601.39;1779772;80;21175;-82
2021/03/15 09:13:16;;;;;;;9.00;6.42;;;;;;;7.65;79.01;95608.87;1768630;81;21139;-81
2021/03/15 09:15:54;;;;;;;10.90;9.45;;;;;;;7.66;79.50;95603.47;1744547;82;21259;-82
2021/03/15 09:18:44;;;;;;;13.40;10.40;;;;;;;7.62;79.26;95600.78;1744562;82;21251;-83
2021/03/15 09:21:30;;;;;;;11.85;10.05;;;;;;;7.63;79.39;95597.69;1744674;82;21232;-81
2021/03/15 09:24:00;;;;;;;10.98;6.92;;;;;;;7.63;79.29;95596.37;1744802;81;21160;-81
2021/03/15 09:26:33;;;;;;;15.40;12.35;;;;;;;7.63;79.32;95589.81;1766068;81;21171;-82
2021/03/15 09:29:05;;;;;;;15.23;9.45;;;;;;;7.54;79.01;95595.91;1773236;80;21243;-81
2021/03/15 09:31:33;;;;;;;15.03;12.30;;;;;;;7.45;79.28;95591.02;1774752;80;21234;-82
2021/03/15 09:34:08;;;;;;;14.13;8.78;;;;;;;7.34;79.55;95587.58;1773151;78;21230;-82
2021/03/15 09:36:37;;;;;;;12.58;9.45;;;;;;;7.26;79.89;95586.64;1775791;80;21243;-80
2021/03/15 09:39:06;;;;;;;15.53;10.72;;;;;;;7.11;80.17;95593.60;1775631;80;21282;-81
2021/03/15 09:41:36;;;;;;;14.55;11.15;;;;;;;7.13;79.84;95573.33;1755481;81;21321;-83
2021/03/15 09:44:05;;;;;;;12.18;8.78;;;;;;;7.22;80.05;95578.70;1774093;81;21293;-82
2021/03/15 09:46:36;;;;;;;13.48;8.83;;;;;;;7.22;80.05;95578.70;1758212;81;21245;-84
2021/03/15 09:49:04;;;;;;;14.15;10.50;;;;;;;7.18;80.03;95577.69;1770282;80;21701;-82
2021/03/15 09:51:32;;;;;;;13.62;8.25;;;;;;;7.15;80.05;95569.25;1772245;80;21246;-81
2021/03/15 09:54:01;;;;;;;10.23;7.03;;;;;;;7.15;80.32;95567.48;1743055;81;21171;-81
2021/03/15 09:56:32;;;;;;;12.35;10.45;;;;;;;7.17;80.28;95572.10;1753344;81;21108;-80
2021/03/15 09:59:11;;;;;;;10.95;6.87;;;;;;;7.17;80.28;95572.10;1764683;80;21366;-80
2021/03/15 10:01:46;;;;;;;17.42;11.75;;;;;;;7.26;80.34;95566.98;1768048;81;21151;-83
2021/03/15 10:04:37;;;;;;;16.37;12.90;;;;;;;7.32;80.43;95567.26;1772147;81;21123;-82
2021/03/15 10:07:23;;;;;;;19.87;11.97;;;;;;;7.45;80.20;95556.47;1760485;80;21308;-83
2021/03/15 10:10:18;;;;;;;13.80;9.70;;;;;;;7.62;80.08;95550.95;1743188;80;21261;-82
2021/03/15 10:13:07;;;;;;;17.30;11.63;;;;;;;7.77;80.08;95550.00;1743597;82;21768;-82
2021/03/15 10:16:10;;;;;;;15.13;11.45;;;;;;;7.90;79.77;95554.11;1860629;77;24478;-82
2021/03/15 10:18:58;;;;;;;16.70;12.60;;;;;;;7.83;79.53;95553.05;1819211;78;21137;-82
2021/03/15 10:21:33;;;;;;;18.10;12.28;;;;;;;7.59;79.28;95535.99;1831395;78;21316;-83
2021/03/15 10:24:08;;;;;;;15.85;11.30;;;;;;;7.65;79.60;95551.17;1831317;78;21166;-81
2021/03/15 10:26:44;;;;;;;16.20;12.23;;;;;;;7.72;79.60;95548.31;1798190;80;22363;-80
2021/03/15 10:29:15;;;;;;;15.50;11.80;;;;;;;7.83;79.64;95551.23;1797291;80;21202;-80
2021/03/15 10:31:47;;;;;;;12.80;9.50;;;;;;;7.86;78.89;95550.11;1798330;80;21703;-82
2021/03/15 10:34:15;;;;;;;9.95;6.83;;;;;;;7.95;79.15;95547.94;1801020;80;21220;-82
2021/03/15 10:37:02;;;;;;;14.65;11.48;;;;;;;8.05;78.90;95535.59;1781387;79;24675;-81
2021/03/15 10:39:51;;;;;;;16.77;13.40;;;;;;;8.01;78.81;95534.25;1754482;82;21262;-84
2021/03/15 10:42:25;;;;;;;13.13;11.55;;;;;;;8.03;78.94;95532.28;1745985;82;21195;-80
2021/03/15 10:45:00;;;;;;;17.90;11.85;;;;;;;8.07;78.62;95536.78;1699640;83;21156;-80
2021/03/15 10:47:38;;;;;;;16.62;11.97;;;;;;;8.10;78.71;95532.53;1698394;82;21172;-84
2021/03/15 10:50:34;;;;;;;10.43;7.40;;;;;;;8.11;78.47;95532.41;1726203;83;21314;-82
2021/03/15 10:53:33;;;;;;;15.25;11.35;;;;;;;7.98;78.38;95530.59;1752504;82;21275;-84
2021/03/15 10:56:23;;;;;;;17.12;11.08;;;;;;;7.98;78.38;95530.59;1726968;82;21585;-80
2021/03/15 10:58:56;;;;;;;16.57;12.23;;;;;;;7.99;78.38;95524.38;1724041;83;21183;-80
2021/03/15 11:01:43;;;;;;;15.63;10.00;;;;;;;8.06;78.57;95523.32;1726435;83;21262;-80
2021/03/15 11:04:21;;;;;;;18.00;13.32;;;;;;;8.15;78.68;95523.75;1725458;83;21271;-82
2021/03/15 11:06:54;;;;;;;10.58;7.92;;;;;;;8.16;78.48;95513.59;1727076;82;21427;-79
2021/03/15 11:09:55;;;;;;;14.90;10.50;;;;;;;8.24;78.79;95512.84;1695006;83;21306;-84
2021/03/15 11:12:45;;;;;;;13.25;10.85;;;;;;;8.15;78.27;95509.78;1710270;82;21717;-79
2021/03/15 11:15:39;;;;;;;14.87;11.85;;;;;;;8.10;78.14;95503.20;1726141;83;21198;-80
2021/03/15 11:18:31;;;;;;;19.00;12.68;;;;;;;8.17;78.23;95503.41;1725086;83;21759;-81
2021/03/15 11:21:07;;;;;;;15.15;12.47;;;;;;;8.26;78.15;95500.40;1736120;82;21254;-82
2021/03/15 11:24:06;;;;;;;16.80;11.68;;;;;;;8.34;78.16;95499.17;1743510;82;21230;-80
2021/03/15 11:29:41;;;;;;;14.87;11.85;;;;;;;8.43;77.96;95482.52;1754421;82;22039;-80
2021/03/15 11:32:25;;;;;;;11.65;9.50;;;;;;;8.42;77.73;95486.12;1724223;82;21183;-83
2021/03/15 11:34:56;;;;;;;14.40;12.00;;;;;;;8.39;77.62;95477.25;1716598;83;21354;-82
2021/03/15 11:37:32;;;;;;;18.70;11.45;;;;;;;8.28;77.12;95480.08;1694272;84;21649;-81
2021/03/15 11:40:38;;;;;;;15.78;10.82;;;;;;;8.34;77.49;95476.05;1817765;78;25786;-80
2021/03/15 11:43:09;;;;;;;10.03;8.43;;;;;;;8.27;77.55;95467.93;1833754;77;21294;-79
2021/03/15 11:45:39;;;;;;;13.80;9.55;;;;;;;8.33;77.38;95466.52;1852907;77;21267;-82
2021/03/15 11:48:09;;;;;;;12.00;8.08;;;;;;;8.31;77.38;95456.64;1849405;77;21187;-82
2021/03/15 11:50:45;;;;;;;10.53;7.37;;;;;;;8.18;76.90;95447.82;1861093;77;21167;-80
2021/03/15 11:53:15;;;;;;;13.25;10.28;;;;;;;8.25;77.17;95455.44;1857338;77;21305;-80
2021/03/15 11:55:45;;;;;;;12.45;9.75;;;;;;;8.16;77.25;95451.92;1849249;77;21311;-81
2021/03/15 11:58:15;;;;;;;12.25;9.38;;;;;;;8.26;77.53;95449.22;1862718;77;21136;-81
2021/03/15 12:00:46;;;;;;;11.85;8.65;;;;;;;8.33;77.48;95442.38;1813622;77;21544;-82
2021/03/15 12:03:19;;;;;;;13.18;8.70;;;;;;;8.40;77.47;95442.11;1862358;77;21867;-80
2021/03/15 12:06:07;;;;;;;10.53;8.50;;;;;;;8.51;77.59;95442.89;1854145;77;21262;-81